Terminal Aerodrome Forecast
Issued by NWS

Home | Current Version | Previous Version | Text Only | Print | Product List | Glossary Off
Versions: 1 2 3 4 5 6 7 8 9 10 11 12 13 14 15 16

000
FTUS43 KICT 281700
TAFRSL
TAF
KRSL 281720Z 2818/2918 18017G25KT P6SM SCT080 BKN150
     FM282200 18016G23KT P6SM VCTS OVC070CB
      TEMPO 2900/2904 VRB15G30KT 3SM TSRA OVC050CB
     FM290800 22008KT P6SM BKN120
     FM291500 32007KT P6SM BKN120=

USA.gov is the U.S. government's official web portal to all federal, state and local government web resources and services.